Station: Fitzroy Crossing  

  Atmospheric Gas Attenuation - ITU Rec 676-11   ----------------- dB/100km -----------------
Date Time Temp RH % AH g/m3 Dew Point Wind Direction Speed kph Gust kph Barometer mB Rainfall Since 9am 24GHz 47GHz 76GHz 122GHz 134GHz 241GHz
08/05 09:20 24.7 31 7.02 6.4 1018 0 15.8 21.0 29.6 77.4 68.5 234.9
08/05 09:10 24.1 31 6.78 5.9 1018 0 15.3 20.8 29.1 75.8 66.4 227.5
08/05 09:00 23.9 31 6.71 5.8 1018 0 15.2 20.7 28.9 75.4 65.8 225.4
08/05 08:50 24 31 6.74 5.8 1018 0 15.2 20.7 29.0 75.6 66.1 226.2
08/05 08:40 23.8 32 6.88 6.1 1017.9 0 15.5 21.0 29.5 77.0 67.7 232.1
08/05 08:30 23.2 33 6.86 6.1 1017.8 0 15.5 21.1 29.6 77.4 68.0 233.0
08/05 08:20 22.6 33 6.63 5.5 1017.9 0 15.1 20.9 29.1 75.9 66.0 225.8
08/05 08:10 22.3 34 6.71 5.7 1017.8 0 15.2 21.1 29.5 76.9 67.1 229.7
08/05 08:00 22 35 6.79 5.8 1017.8 0 15.4 21.2 29.8 77.9 68.2 233.7
08/05 07:50 21.7 35 6.68 5.6 1017.8 0 15.2 21.2 29.6 77.2 67.3 230.2
08/05 07:40 21.4 36 6.75 5.7 1017.8 0 15.4 21.3 29.9 78.1 68.3 233.8
08/05 07:30 20.7 38 6.84 5.9 1017.8 0 15.6 21.6 30.5 79.6 69.9 239.4
08/05 07:20 19.9 41 7.04 6.3 1017.7 0 16.0 22.1 31.5 82.2 72.9 249.8
08/05 07:10 18.9 42 6.8 5.7 1017.6 0 15.6 22.0 31.0 80.9 71.0 243.1
08/05 07:00 18.5 44 6.96 6 1017.6 0 15.9 22.3 31.7 82.8 73.2 250.8
08/05 06:50 17.9 44 6.72 5.5 1017.5 0 15.4 22.1 31.1 81.2 71.0 242.8
08/05 06:40 17.4 46 6.82 5.7 1017.4 0 15.7 22.4 31.6 82.6 72.6 248.4
08/05 06:30 16.8 47 6.72 5.4 1017.3 0 15.5 22.4 31.5 82.3 71.9 246.0
08/05 06:20 16.3 49 6.8 5.6 1017.2 0 15.7 22.6 32.0 83.5 73.3 250.9
08/05 06:10 16 48 6.54 5 1017.1 0 15.1 22.3 31.2 81.3 70.5 240.9
08/05 06:00 16 48 6.54 5 1017.1 0 15.1 22.3 31.2 81.3 70.5 240.9
08/05 05:50 16 48 6.54 5 1016.8 0 15.1 22.3 31.1 81.3 70.5 240.8
08/05 05:40 16.3 46 6.38 4.7 1016.7 0 14.8 22.0 30.4 79.5 68.3 233.3
08/05 05:30 16.6 45 6.36 4.6 1016.8 0 14.7 21.9 30.3 79.0 67.8 231.6
08/05 05:20 16.6 45 6.36 4.6 1016.5 0 14.7 21.9 30.3 79.0 67.8 231.6
08/05 05:10 16.5 45 6.32 4.5 1016.5 0 14.6 21.8 30.2 78.7 67.4 230.2
08/05 05:00 16.5 45 6.32 4.5 1016.4 0 14.6 21.8 30.2 78.7 67.4 230.2
08/05 04:50 16.7 45 6.39 4.7 1016.5 0 14.8 21.9 30.3 79.1 68.1 232.5
08/05 04:40 16.9 44 6.33 4.6 1016.4 0 14.6 21.7 30.0 78.4 67.2 229.5
08/05 04:30 17 43 6.22 4.3 1016.4 0 14.4 21.6 29.6 77.2 65.8 224.7
08/05 04:20 17 43 6.22 4.3 1016.3 0 14.4 21.6 29.6 77.2 65.8 224.7
08/05 04:10 17 44 6.37 4.7 1016.2 0 14.7 21.8 30.1 78.6 67.6 230.8
08/05 04:00 17.1 43 6.26 4.4 1016.2 0 14.5 21.6 29.7 77.5 66.2 226.0
08/05 03:50 17 43 6.22 4.3 1016 0 14.4 21.5 29.6 77.2 65.8 224.6
08/05 03:40 17.4 42 6.22 4.4 1016.1 0 14.4 21.5 29.5 76.8 65.5 223.5
08/05 03:30 17.7 41 6.19 4.3 1016 0 14.3 21.3 29.2 76.3 64.9 221.5
08/05 03:20 18 40 6.14 4.2 1016 0 14.2 21.2 29.0 75.5 64.1 218.7
08/05 03:10 18.2 39 6.06 4 1015.9 0 14.0 21.0 28.6 74.6 63.0 214.9
08/05 03:00 18.3 39 6.1 4.1 1016 0 14.1 21.1 28.7 74.9 63.4 216.3
08/05 02:50 18.7 38 6.08 4.1 1016 0 14.0 21.0 28.5 74.3 62.9 214.4
08/05 02:40 19.1 37 6.06 4.1 1015.9 0 14.0 20.8 28.3 73.8 62.3 212.6
08/05 02:30 19.3 36 5.97 3.9 1016 0 13.8 20.7 27.9 72.8 61.2 208.6
08/05 02:20 19.5 36 6.04 4 1016.1 0 13.9 20.7 28.1 73.3 61.8 210.8
08/05 02:10 19.6 36 6.08 4.1 1016 0 14.0 20.8 28.2 73.5 62.2 212.1
08/05 02:00 19.9 35 6.01 4 1016 0 13.9 20.6 27.9 72.6 61.2 208.6
08/05 01:50 19.9 35 6.01 4 1016 0 13.9 20.6 27.9 72.6 61.2 208.6
08/05 01:40 20.1 35 6.08 4.2 1016.2 0 14.0 20.7 28.0 73.1 61.8 210.9
08/05 01:30 20.2 34 5.94 3.9 1016.2 0 13.7 20.4 27.5 71.8 60.2 205.2
08/05 01:20 20.4 34 6.01 4 1016.4 0 13.8 20.5 27.7 72.2 60.8 207.4
08/05 01:10 20.6 34 6.08 4.2 1016.4 0 14.0 20.6 27.9 72.7 61.4 209.6
08/05 01:00 20.7 34 6.12 4.3 1016.3 0 14.1 20.6 28.0 72.9 61.8 210.9
08/05 00:50 20.8 33 5.97 4 1016.4 0 13.7 20.4 27.5 71.5 60.1 204.9
08/05 00:40 20.9 33 6.01 4 1016.5 0 13.8 20.4 27.6 71.8 60.4 206.2
08/05 00:30 21.1 33 6.08 4.2 1016.5 0 14.0 20.4 27.7 72.2 61.1 208.4
08/05 00:20 21 34 6.23 4.6 1016.6 0 14.3 20.7 28.3 73.7 62.8 214.4
08/05 00:10 20.8 35 6.34 4.8 1016.7 0 14.5 20.9 28.7 74.8 64.2 219.2
08/05 00:00 20.6 36 6.44 5 1016.7 0 14.7 21.1 29.1 75.9 65.4 223.7
07/05 23:50 20.4 38 6.72 5.6 1016.7 0 15.3 21.5 30.1 78.7 68.7 235.3
07/05 23:40 20.4 38 6.72 5.6 1016.8 0 15.3 21.5 30.1 78.7 68.7 235.3
07/05 23:30 20.8 38 6.88 6 1017.1 0 15.6 21.6 30.5 79.8 70.2 240.5
07/05 23:20 21.1 37 6.82 5.9 1017.1 0 15.5 21.5 30.2 78.9 69.3 237.3
07/05 23:10 21.5 36 6.79 5.8 1017.2 0 15.4 21.3 30.0 78.3 68.6 235.0
07/05 23:00 21.8 36 6.91 6.1 1017.2 0 15.7 21.4 30.3 79.1 69.7 238.8
07/05 22:50 22.1 35 6.83 5.9 1016.9 0 15.5 21.3 29.9 78.0 68.5 234.8
07/05 22:40 22.2 35 6.87 6 1016.9 0 15.6 21.3 30.0 78.3 68.9 236.1
07/05 22:30 22.3 35 6.91 6.1 1017.1 0 15.7 21.3 30.1 78.6 69.3 237.4
07/05 22:20 22.4 35 6.95 6.2 1017.1 0 15.7 21.4 30.2 78.9 69.6 238.6
07/05 22:06 22.4 35 6.95 6.2 1017.1 0 15.7 21.4 30.2 78.9 69.6 238.6
07/05 22:00 22.6 35 7.03 6.4 1017.1 0 15.9 21.4 30.4 79.4 70.3 241.2
07/05 21:50 22.7 35 7.07 6.5 1017.1 0 16.0 21.4 30.5 79.6 70.7 242.4
07/05 21:40 22.9 35 7.15 6.6 1017.1 0 16.1 21.5 30.7 80.2 71.4 245.0
07/05 21:30 22.9 35 7.15 6.6 1017.1 0 16.1 21.5 30.7 80.2 71.4 245.0
07/05 21:20 23 35 7.19 6.7 1017.1 0 16.2 21.5 30.8 80.4 71.8 246.2
07/05 21:10 23.1 35 7.23 6.8 1017.1 0 16.3 21.6 30.9 80.7 72.1 247.5
07/05 21:00 23.2 35 7.28 6.9 1017 0 16.4 21.6 31.0 81.0 72.6 249.1
07/05 20:50 23.5 34 7.19 6.7 1016.9 0 16.2 21.4 30.6 79.9 71.3 244.7
07/05 20:40 23.7 34 7.27 6.9 1016.9 0 16.3 21.5 30.8 80.5 72.0 247.2
07/05 20:30 23.9 33 7.14 6.7 1017 0 16.1 21.3 30.3 79.1 70.4 241.6
07/05 20:20 24.1 33 7.22 6.8 1016.9 0 16.2 21.3 30.5 79.6 71.1 244.1
07/05 20:10 24.1 33 7.22 6.8 1016.8 0 16.2 21.3 30.5 79.6 71.1 244.1
07/05 20:00 24.1 34 7.44 7.3 1016.8 0 16.7 21.6 31.2 81.6 73.5 252.6
07/05 19:50 23.9 34 7.36 7.1 1016.6 0 16.5 21.6 31.0 81.0 72.8 250.0
07/05 19:40 24.1 34 7.44 7.3 1016.5 0 16.7 21.6 31.2 81.6 73.5 252.5
07/05 19:30 24.1 34 7.44 7.3 1016.4 0 16.7 21.6 31.2 81.5 73.5 252.5
07/05 19:20 24.4 33 7.34 7.1 1016.3 0 16.5 21.4 30.7 80.3 72.1 247.7
07/05 19:10 24.5 33 7.39 7.2 1016.2 0 16.6 21.4 30.9 80.7 72.6 249.3
07/05 19:00 24.6 33 7.43 7.3 1016.1 0 16.6 21.5 31.0 80.9 72.9 250.5
07/05 18:50 25 32 7.37 7.2 1015.9 0 16.5 21.3 30.6 80.0 71.9 247.0
07/05 18:40 25.1 32 7.41 7.3 1015.8 0 16.6 21.3 30.7 80.2 72.3 248.2
07/05 18:30 25.4 31 7.3 7.1 1015.7 0 16.3 21.1 30.2 79.0 70.8 243.1
07/05 18:20 25.6 31 7.38 7.2 1015.6 0 16.5 21.2 30.4 79.5 71.5 245.5
07/05 18:10 25.6 32 7.62 7.7 1015.4 0 17.0 21.5 31.2 81.6 74.1 254.6
07/05 18:00 25.5 33 7.81 8.1 1015.3 0 17.4 21.7 31.8 83.4 76.2 262.2
07/05 17:50 25.4 33 7.77 8 1015.2 0 17.3 21.7 31.8 83.1 75.9 260.9
07/05 17:40 26 32 7.79 8 1015 0 17.3 21.6 31.6 82.7 75.5 259.8
07/05 17:30 26.5 31 7.76 8 1014.9 0 17.3 21.4 31.3 81.9 74.7 257.0
07/05 17:20 27.2 29 7.55 7.6 1014.8 0 16.8 21.0 30.3 79.4 71.8 247.0
07/05 17:10 27.6 29 7.72 8 1014.7 0 17.1 21.1 30.7 80.4 73.3 252.1
07/05 17:00 27.8 28 7.53 7.6 1014.5 0 16.7 20.8 30.1 78.6 71.1 244.4
07/05 16:50 28.1 28 7.66 7.9 1014.3 0 17.0 20.9 30.4 79.4 72.2 248.3

Last Refresh: 08-May-2026 11:03:24

Bureau of Meteorology